createdAt,value
2022-09-09T00:01:00.881Z,27
2022-09-09T00:06:04.021Z,27
2022-09-09T00:11:22.813Z,27
2022-09-09T00:16:41.552Z,27
2022-09-09T00:21:59.754Z,27
2022-09-09T00:27:17.991Z,27.1
2022-09-09T00:32:36.450Z,27.1
2022-09-09T00:37:55.221Z,27.1
2022-09-09T00:43:13.715Z,27.1
2022-09-09T00:48:32.088Z,27.1
2022-09-09T00:53:50.735Z,27.1
2022-09-09T00:59:09.240Z,27.1
2022-09-09T01:04:27.697Z,27.1
2022-09-09T01:09:46.171Z,27.1
2022-09-09T01:15:04.685Z,27.2
2022-09-09T01:20:23.415Z,27.2
2022-09-09T01:25:41.904Z,27.2
2022-09-09T01:31:00.406Z,27.2
2022-09-09T01:36:19.074Z,27.2
2022-09-09T01:41:37.841Z,27.2
2022-09-09T01:46:56.070Z,27.2
2022-09-09T01:52:13.966Z,27.2
2022-09-09T01:57:32.722Z,27.2
2022-09-09T02:02:51.561Z,27.2
2022-09-09T02:08:10.178Z,27.2
2022-09-09T02:13:28.953Z,27.3
2022-09-09T02:18:47.483Z,27.3
2022-09-09T02:24:05.954Z,27.3
2022-09-09T02:29:24.446Z,27.3
2022-09-09T02:34:42.698Z,27.3
2022-09-09T02:40:01.203Z,27.3
2022-09-09T02:45:20.128Z,27.3
2022-09-09T02:50:38.657Z,27.4
2022-09-09T02:55:57.390Z,27.4
2022-09-09T03:01:16.063Z,27.4
2022-09-09T03:06:34.657Z,27.4
2022-09-09T03:11:53.394Z,27.4
2022-09-09T03:17:11.318Z,27.4
2022-09-09T03:22:30.114Z,27.4
2022-09-09T03:27:48.296Z,27.4
2022-09-09T03:33:07.083Z,27.4
2022-09-09T03:38:25.567Z,27.4
2022-09-09T03:43:43.750Z,27.4
2022-09-09T03:49:02.244Z,27.4
2022-09-09T03:54:21.033Z,27.4
2022-09-09T03:59:39.777Z,27.4
2022-09-09T04:04:58.533Z,27.4
2022-09-09T04:10:17.047Z,27.3
2022-09-09T04:15:34.941Z,27.3
2022-09-09T04:20:53.151Z,27.3
2022-09-09T04:26:11.945Z,27.3
2022-09-09T04:31:30.566Z,27.3
2022-09-09T04:36:49.188Z,27.3
2022-09-09T04:42:07.413Z,27
2022-09-09T04:47:25.593Z,26.5
2022-09-09T04:52:44.079Z,26.3
2022-09-09T04:58:02.611Z,26.1
2022-09-09T05:03:21.064Z,26.2
2022-09-09T05:08:38.989Z,26.3
2022-09-09T05:13:57.774Z,26.4
2022-09-09T05:19:16.237Z,26.5
2022-09-09T05:24:34.577Z,26.5
2022-09-09T05:29:52.506Z,26.6
2022-09-09T05:35:10.640Z,26.7
2022-09-09T05:40:28.852Z,26.7
2022-09-09T05:45:47.642Z,26.7
2022-09-09T05:51:06.105Z,26.8
2022-09-09T05:56:24.580Z,26.8
2022-09-09T06:01:43.380Z,26.8
2022-09-09T06:07:02.283Z,26.8
2022-09-09T06:12:21.049Z,26.8
2022-09-09T06:17:39.275Z,26.8
2022-09-09T06:22:57.736Z,26.8
2022-09-09T06:28:16.227Z,26.7
2022-09-09T06:33:35.008Z,26.7
2022-09-09T06:38:53.217Z,26.7
2022-09-09T06:44:11.683Z,26.7
2022-09-09T06:49:30.476Z,26.7
2022-09-09T06:54:48.658Z,26.8
2022-09-09T07:00:07.139Z,26.8
2022-09-09T07:05:25.662Z,26.8
2022-09-09T07:10:43.838Z,26.8
2022-09-09T07:16:02.192Z,26.9
2022-09-09T07:21:20.974Z,26.9
2022-09-09T07:26:39.166Z,26.9
2022-09-09T07:31:57.928Z,26.9
2022-09-09T07:37:16.155Z,26.9
2022-09-09T07:42:34.612Z,26.9
2022-09-09T07:47:53.087Z,26.9
2022-09-09T07:53:11.323Z,26.9
2022-09-09T07:58:29.779Z,26.9
2022-09-09T08:03:55.965Z,27
2022-09-09T08:09:15.206Z,27
2022-09-09T08:14:33.656Z,27
2022-09-09T08:19:51.859Z,27
2022-09-09T08:25:10.113Z,27
2022-09-09T08:30:28.289Z,27
2022-09-09T08:35:49.936Z,27
2022-09-09T08:41:08.407Z,27.1
2022-09-09T08:46:26.682Z,27.1
2022-09-09T08:51:45.297Z,27.1
2022-09-09T08:57:03.802Z,27.1
2022-09-09T09:02:22.545Z,27.1
2022-09-09T09:07:40.754Z,27.1
2022-09-09T09:12:58.970Z,27.1
2022-09-09T09:18:17.171Z,27.1
2022-09-09T09:23:35.376Z,27.1
2022-09-09T09:28:53.603Z,27.1
2022-09-09T09:34:12.063Z,27.1
2022-09-09T09:45:19.924Z,27.1
2022-09-09T09:50:38.502Z,27.2
2022-09-09T09:55:56.704Z,27.2
2022-09-09T10:01:15.409Z,27.2
2022-09-09T10:06:33.883Z,27.2
2022-09-09T10:11:52.384Z,27.2
2022-09-09T10:17:11.189Z,27.2
2022-09-09T10:22:29.912Z,27.2
2022-09-09T10:27:48.680Z,27.2
2022-09-09T10:33:07.013Z,27.2
2022-09-09T10:38:25.581Z,27.2
2022-09-09T10:43:44.055Z,27.2
2022-09-09T10:49:02.574Z,27.2
2022-09-09T10:54:21.319Z,27.2
2022-09-09T10:59:40.069Z,27.2
2022-09-09T11:04:58.588Z,27.2
2022-09-09T11:10:17.276Z,27.2
2022-09-09T11:15:35.718Z,27.2
2022-09-09T11:20:54.214Z,27.2
2022-09-09T11:26:12.608Z,27.2
2022-09-09T11:31:31.145Z,27.2
2022-09-09T11:36:49.367Z,27.2
2022-09-09T11:42:07.539Z,27.2
2022-09-09T11:47:26.275Z,27.2
2022-09-09T11:52:45.064Z,27.2
2022-09-09T11:58:03.529Z,27.2
2022-09-09T12:03:22.000Z,27.2
2022-09-09T12:08:40.754Z,27.2
2022-09-09T12:13:59.490Z,27.2
2022-09-09T12:19:18.415Z,27.2
2022-09-09T12:24:42.510Z,27.2
2022-09-09T12:30:00.421Z,27.2
2022-09-09T12:35:18.889Z,27.2
2022-09-09T12:40:37.111Z,27.2
2022-09-09T12:45:55.596Z,27.3
2022-09-09T12:51:14.062Z,27.2
2022-09-09T12:56:32.290Z,27.3
2022-09-09T13:01:50.983Z,27.3
2022-09-09T13:07:09.730Z,27.3
2022-09-09T13:12:28.244Z,27.3
2022-09-09T13:17:46.695Z,27.3
2022-09-09T13:23:04.900Z,27.3
2022-09-09T13:28:23.410Z,27.3
2022-09-09T13:33:41.851Z,27.3
2022-09-09T13:39:00.326Z,27.3
2022-09-09T13:44:18.559Z,27.3
2022-09-09T13:49:37.028Z,27.3
2022-09-09T13:54:55.521Z,27.3
2022-09-09T14:00:14.392Z,27.3
2022-09-09T14:05:32.928Z,27.3
2022-09-09T14:10:51.687Z,27.3
2022-09-09T14:16:10.299Z,27.3
2022-09-09T14:21:28.594Z,27.3
2022-09-09T14:26:46.798Z,27.3
2022-09-09T14:32:12.686Z,27.3
2022-09-09T14:37:31.373Z,27.4
2022-09-09T14:42:49.299Z,27.4
2022-09-09T14:48:08.087Z,27.4
2022-09-09T14:53:26.817Z,27.4
2022-09-09T14:58:45.149Z,27.4
2022-09-09T15:04:03.650Z,27.4
2022-09-09T15:09:22.092Z,27.4
2022-09-09T15:14:40.854Z,27.4
2022-09-09T15:19:59.377Z,27.4
2022-09-09T15:25:17.825Z,27.4
2022-09-09T15:30:36.324Z,27.4
2022-09-09T15:35:54.810Z,27.4
2022-09-09T15:41:13.553Z,27.4
2022-09-09T15:46:32.173Z,27.4
2022-09-09T15:51:50.373Z,27.4
2022-09-09T15:57:08.531Z,27.4
2022-09-09T16:02:26.932Z,27.4
2022-09-09T16:07:45.240Z,27.4
2022-09-09T16:13:03.415Z,27.3
2022-09-09T16:18:22.164Z,27.4
2022-09-09T16:23:40.698Z,27.4
2022-09-09T16:28:59.429Z,27.4
2022-09-09T16:34:17.949Z,27.4
2022-09-09T16:39:35.907Z,27.4
2022-09-09T16:44:54.251Z,27.4
2022-09-09T16:50:12.445Z,27.4
2022-09-09T16:55:30.671Z,27.4
2022-09-09T17:00:48.567Z,27.4
2022-09-09T17:06:07.058Z,27.4
2022-09-09T17:11:25.619Z,27.4
2022-09-09T17:16:43.792Z,27.4
2022-09-09T17:22:18.231Z,27.4
2022-09-09T17:27:36.733Z,27.4
2022-09-09T17:32:54.904Z,27.4
2022-09-09T17:38:13.105Z,27.4
2022-09-09T17:43:31.275Z,27.4
2022-09-09T17:48:49.421Z,27.4
2022-09-09T17:54:07.630Z,27.3
2022-09-09T17:59:10.238Z,27.2
2022-09-09T18:04:28.689Z,27.2
2022-09-09T18:09:47.455Z,27.2
2022-09-09T18:15:06.234Z,27.2
2022-09-09T18:20:24.645Z,27.3
2022-09-09T18:25:43.385Z,27.3
2022-09-09T18:31:01.995Z,27.3
2022-09-09T18:36:20.498Z,27.3
2022-09-09T18:41:39.269Z,27.3
2022-09-09T18:46:58.065Z,27.3
2022-09-09T18:52:16.544Z,27.3
2022-09-09T18:57:36.709Z,27.3
2022-09-09T19:02:55.506Z,27.3
2022-09-09T19:08:13.689Z,27.2
2022-09-09T19:13:32.161Z,27.1
2022-09-09T19:18:50.949Z,27.1
2022-09-09T19:24:09.679Z,27
2022-09-09T19:29:28.165Z,27
2022-09-09T19:34:46.655Z,27
2022-09-09T19:40:05.216Z,26.9
2022-09-09T19:45:23.906Z,26.9
2022-09-09T19:50:42.405Z,26.9
2022-09-09T19:56:00.293Z,27
2022-09-09T20:01:18.700Z,27
2022-09-09T20:06:36.976Z,27
2022-09-09T20:11:55.442Z,27.1
2022-09-09T20:17:13.645Z,27.1
2022-09-09T20:22:31.889Z,27.1
2022-09-09T20:27:50.321Z,27.1
2022-09-09T20:33:09.098Z,27.1
2022-09-09T20:38:27.653Z,27.1
2022-09-09T20:43:46.307Z,27.1
2022-09-09T20:49:04.791Z,27.1
2022-09-09T20:54:23.678Z,27.1
2022-09-09T20:59:41.924Z,27.1
2022-09-09T21:05:00.423Z,27.2
2022-09-09T21:10:19.211Z,27.2
2022-09-09T21:15:37.693Z,27.2
2022-09-09T21:20:55.606Z,27.2
2022-09-09T21:26:14.133Z,27.2
2022-09-09T21:31:32.424Z,27.2
2022-09-09T21:36:50.735Z,27.2
2022-09-09T21:42:08.963Z,27.2
2022-09-09T21:47:27.096Z,27.2
2022-09-09T21:52:45.809Z,27.2
2022-09-09T21:58:04.571Z,27.2
2022-09-09T22:03:23.033Z,27.2
2022-09-09T22:08:41.230Z,27.2
2022-09-09T22:13:59.454Z,27.2
2022-09-09T22:19:17.916Z,27.3
2022-09-09T22:24:36.110Z,27.3
2022-09-09T22:29:54.909Z,27.3
2022-09-09T22:35:13.094Z,27.3
2022-09-09T22:40:31.568Z,27.3
2022-09-09T22:45:50.075Z,27.3
2022-09-09T22:51:08.539Z,27.3
2022-09-09T22:56:27.012Z,27.3
2022-09-09T23:01:45.597Z,27.3
2022-09-09T23:07:03.826Z,27.3
2022-09-09T23:12:22.595Z,27.3
2022-09-09T23:17:41.099Z,27.3
2022-09-09T23:22:59.271Z,27.3
2022-09-09T23:28:17.760Z,27.4
2022-09-09T23:33:36.278Z,27.4
2022-09-09T23:38:55.030Z,27.4
2022-09-09T23:44:13.517Z,27.4
2022-09-09T23:49:32.033Z,27.4
2022-09-09T23:54:50.341Z,27.4
